createdAt,value
2023-04-28T00:02:12.446Z,14.80
2023-04-28T00:04:46.141Z,12.00
2023-04-28T00:07:21.276Z,12.80
2023-04-28T00:09:54.772Z,12.05
2023-04-28T00:12:28.245Z,14.40
2023-04-28T00:15:02.187Z,12.93
2023-04-28T00:17:37.719Z,15.13
2023-04-28T00:20:12.645Z,15.00
2023-04-28T00:22:49.135Z,13.20
2023-04-28T00:25:22.643Z,12.88
2023-04-28T00:27:56.115Z,12.18
2023-04-28T00:30:30.782Z,12.05
2023-04-28T00:33:04.353Z,12.70
2023-04-28T00:35:38.079Z,12.75
2023-04-28T00:38:12.963Z,12.38
2023-04-28T00:40:46.413Z,12.27
2023-04-28T00:43:19.875Z,11.73
2023-04-28T00:45:53.750Z,11.20
2023-04-28T00:48:27.779Z,13.00
2023-04-28T00:51:01.588Z,12.10
2023-04-28T00:53:36.695Z,10.85
2023-04-28T00:56:10.951Z,10.68
2023-04-28T00:58:44.812Z,11.40
2023-04-28T01:01:19.176Z,11.30
2023-04-28T01:03:53.687Z,11.15
2023-04-28T01:06:29.862Z,11.48
2023-04-28T01:09:07.611Z,11.20
2023-04-28T01:11:41.693Z,11.05
2023-04-28T01:14:17.782Z,9.73
2023-04-28T01:16:51.562Z,8.88
2023-04-28T01:19:25.079Z,11.00
2023-04-28T01:21:59.590Z,11.25
2023-04-28T01:24:34.719Z,9.80
2023-04-28T01:27:11.706Z,10.20
2023-04-28T01:29:47.464Z,10.95
2023-04-28T01:32:20.940Z,11.18
2023-04-28T01:34:54.518Z,10.13
2023-04-28T01:37:27.999Z,11.05
2023-04-28T01:40:02.922Z,10.52
2023-04-28T01:42:36.439Z,10.77
2023-04-28T01:45:11.176Z,11.45
2023-04-28T01:47:44.650Z,12.23
2023-04-28T01:50:19.844Z,11.85
2023-04-28T01:52:53.467Z,10.82
2023-04-28T01:55:28.334Z,10.55
2023-04-28T01:58:02.639Z,11.45
2023-04-28T02:00:37.464Z,10.98
2023-04-28T02:03:11.191Z,10.85
2023-04-28T02:05:44.774Z,10.68
2023-04-28T02:08:18.521Z,11.13
2023-04-28T02:10:53.412Z,11.23
2023-04-28T02:13:28.066Z,12.52
2023-04-28T02:16:02.699Z,10.13
2023-04-28T02:18:36.686Z,9.73
2023-04-28T02:21:11.842Z,11.23
2023-04-28T02:23:45.375Z,9.60
2023-04-28T02:26:20.215Z,9.43
2023-04-28T02:28:58.134Z,10.85
2023-04-28T02:31:31.718Z,11.13
2023-04-28T02:34:05.252Z,9.70
2023-04-28T02:36:38.740Z,9.57
2023-04-28T02:39:13.978Z,11.85
2023-04-28T02:41:48.949Z,9.70
2023-04-28T02:44:22.732Z,11.65
2023-04-28T02:46:56.241Z,10.10
2023-04-28T02:49:32.909Z,9.45
2023-04-28T02:52:06.650Z,10.85
2023-04-28T02:54:41.164Z,10.65
2023-04-28T02:57:16.086Z,10.48
2023-04-28T02:59:49.583Z,11.52
2023-04-28T03:02:23.852Z,10.63
2023-04-28T03:04:57.424Z,10.07
2023-04-28T03:07:30.997Z,10.50
2023-04-28T03:10:04.557Z,9.80
2023-04-28T03:12:39.493Z,10.38
2023-04-28T03:15:14.232Z,10.70
2023-04-28T03:17:48.002Z,10.20
2023-04-28T03:20:22.253Z,9.40
2023-04-28T03:22:55.957Z,11.15
2023-04-28T03:25:29.613Z,8.77
2023-04-28T03:28:05.267Z,9.45
2023-04-28T03:30:38.926Z,8.70
2023-04-28T03:33:12.394Z,8.63
2023-04-28T03:35:46.044Z,9.18
2023-04-28T03:38:19.847Z,9.63
2023-04-28T03:40:53.943Z,9.40
2023-04-28T03:43:56.751Z,9.68
2023-04-28T03:46:38.806Z,9.02
2023-04-28T03:49:12.360Z,9.77
2023-04-28T03:51:45.838Z,9.77
2023-04-28T03:54:19.498Z,9.35
2023-04-28T03:56:53.237Z,10.00
2023-04-28T03:59:28.305Z,9.10
2023-04-28T04:02:02.024Z,8.32
2023-04-28T04:04:35.986Z,9.02
2023-04-28T04:07:10.500Z,9.55
2023-04-28T04:09:44.000Z,9.57
2023-04-28T04:12:18.762Z,9.57
2023-04-28T04:14:54.811Z,9.35
2023-04-28T04:17:28.337Z,9.60
2023-04-28T04:20:01.838Z,8.13
2023-04-28T04:22:36.675Z,9.30
2023-04-28T04:25:10.350Z,10.38
2023-04-28T04:27:44.721Z,9.05
2023-04-28T04:30:19.811Z,9.55
2023-04-28T04:32:53.406Z,10.80
2023-04-28T04:35:27.156Z,10.30
2023-04-28T04:38:01.390Z,11.65
2023-04-28T04:40:35.105Z,11.00
2023-04-28T04:43:08.611Z,11.07
2023-04-28T04:45:51.255Z,10.88
2023-04-28T04:48:24.780Z,12.52
2023-04-28T04:50:58.261Z,11.90
2023-04-28T04:53:32.431Z,11.10
2023-04-28T04:56:07.386Z,10.07
2023-04-28T04:58:45.474Z,10.45
2023-04-28T05:01:58.674Z,10.95
2023-04-28T05:04:32.357Z,11.32
2023-04-28T05:07:05.965Z,10.40
2023-04-28T05:09:39.741Z,9.70
2023-04-28T05:12:13.244Z,9.57
2023-04-28T05:14:46.741Z,10.25
2023-04-28T05:17:22.555Z,9.35
2023-04-28T05:19:56.325Z,9.82
2023-04-28T05:22:31.955Z,11.52
2023-04-28T05:25:05.952Z,10.50
2023-04-28T05:27:41.092Z,10.05
2023-04-28T05:30:16.771Z,10.20
2023-04-28T05:32:51.823Z,10.32
2023-04-28T05:35:25.632Z,9.63
2023-04-28T05:37:59.545Z,8.32
2023-04-28T05:40:33.246Z,10.07
2023-04-28T05:43:07.472Z,11.40
2023-04-28T05:45:41.195Z,11.57
2023-04-28T05:48:16.211Z,11.50
2023-04-28T05:50:51.383Z,10.35
2023-04-28T05:53:24.873Z,10.48
2023-04-28T05:55:58.899Z,10.40
2023-04-28T05:58:33.057Z,9.75
2023-04-28T06:01:06.674Z,10.07
2023-04-28T06:03:42.300Z,8.00
2023-04-28T06:06:16.020Z,9.65
2023-04-28T06:08:49.530Z,8.35
2023-04-28T06:11:23.368Z,8.45
2023-04-28T06:13:57.012Z,8.60
2023-04-28T06:16:32.018Z,8.05
2023-04-28T06:19:07.084Z,7.85
2023-04-28T06:21:41.242Z,8.10
2023-04-28T06:24:14.969Z,8.70
2023-04-28T06:26:51.803Z,8.35
2023-04-28T06:29:25.530Z,8.75
2023-04-28T06:31:59.023Z,6.97
2023-04-28T06:34:33.978Z,7.93
2023-04-28T06:37:07.523Z,7.35
2023-04-28T06:39:41.111Z,7.47
2023-04-28T06:42:18.360Z,7.53
2023-04-28T06:44:59.076Z,8.20
2023-04-28T06:47:34.840Z,6.47
2023-04-28T06:50:10.795Z,7.35
2023-04-28T06:52:44.743Z,7.22
2023-04-28T06:55:18.909Z,7.95
2023-04-28T06:57:52.621Z,6.82
2023-04-28T07:00:26.430Z,5.68
2023-04-28T07:03:00.326Z,5.85
2023-04-28T07:05:36.390Z,5.43
2023-04-28T07:08:09.967Z,5.30
2023-04-28T07:10:43.552Z,6.07
2023-04-28T07:13:17.215Z,5.68
2023-04-28T07:15:50.899Z,5.03
2023-04-28T07:18:24.510Z,5.55
2023-04-28T07:20:59.403Z,4.72
2023-04-28T07:23:33.036Z,4.53
2023-04-28T07:26:06.845Z,5.10
2023-04-28T07:28:40.612Z,4.45
2023-04-28T07:31:14.092Z,4.72
2023-04-28T07:33:47.659Z,4.70
2023-04-28T07:36:22.749Z,3.72
2023-04-28T07:38:56.494Z,4.22
2023-04-28T07:41:31.527Z,4.07
2023-04-28T07:44:05.761Z,4.43
2023-04-28T07:46:39.622Z,3.00
2023-04-28T07:49:13.436Z,2.90
2023-04-28T07:51:48.435Z,2.75
2023-04-28T07:54:21.938Z,3.03
2023-04-28T07:56:57.978Z,3.47
2023-04-28T07:59:31.558Z,2.67
2023-04-28T08:02:06.393Z,2.63
2023-04-28T08:04:40.178Z,2.65
2023-04-28T08:07:15.463Z,2.80
2023-04-28T08:09:49.462Z,2.80
2023-04-28T08:12:23.288Z,3.03
2023-04-28T08:14:57.900Z,3.15
2023-04-28T08:17:31.550Z,2.72
2023-04-28T08:20:06.860Z,2.63
2023-04-28T08:22:41.946Z,2.10
2023-04-28T08:25:16.029Z,2.30
2023-04-28T08:27:50.016Z,3.00
2023-04-28T08:30:23.745Z,2.53
2023-04-28T08:32:57.579Z,2.35
2023-04-28T08:35:31.778Z,2.25
2023-04-28T08:38:07.700Z,2.28
2023-04-28T08:40:42.856Z,2.25
2023-04-28T08:43:16.575Z,2.22
2023-04-28T08:45:50.166Z,2.47
2023-04-28T08:48:24.217Z,2.28
2023-04-28T08:50:59.092Z,1.95
2023-04-28T08:53:57.317Z,2.58
2023-04-28T08:56:34.939Z,2.30
2023-04-28T08:59:09.102Z,2.78
2023-04-28T09:01:42.708Z,2.13
2023-04-28T09:04:19.148Z,2.60
2023-04-28T09:06:53.216Z,1.90
2023-04-28T09:09:33.290Z,2.55
2023-04-28T09:12:09.246Z,2.65
2023-04-28T09:14:43.526Z,2.08
2023-04-28T09:17:17.144Z,1.75
2023-04-28T09:19:50.752Z,2.22
2023-04-28T09:22:29.741Z,2.10
2023-04-28T09:25:14.276Z,1.92
2023-04-28T09:27:47.932Z,1.80
2023-04-28T09:30:39.348Z,1.85
2023-04-28T09:33:13.120Z,1.50
2023-04-28T09:35:47.821Z,1.90
2023-04-28T09:38:22.892Z,1.90
2023-04-28T09:41:01.323Z,2.22
2023-04-28T09:43:37.042Z,1.35
2023-04-28T09:46:10.789Z,1.80
2023-04-28T09:48:44.302Z,1.80
2023-04-28T09:51:22.465Z,1.65
2023-04-28T09:54:00.812Z,2.03
2023-04-28T09:56:40.966Z,2.35
2023-04-28T09:59:15.448Z,2.00
2023-04-28T10:01:50.208Z,1.42
2023-04-28T10:04:24.047Z,1.63
2023-04-28T10:06:58.572Z,2.33
2023-04-28T10:09:33.696Z,1.73
2023-04-28T10:12:08.996Z,1.67
2023-04-28T10:14:44.548Z,1.65
2023-04-28T10:17:19.044Z,1.92
2023-04-28T10:19:55.365Z,1.80
2023-04-28T10:22:48.652Z,1.88
2023-04-28T10:25:30.021Z,1.60
2023-04-28T10:28:08.509Z,2.25
2023-04-28T10:30:42.230Z,1.70
2023-04-28T10:33:27.078Z,1.98
2023-04-28T10:36:00.849Z,1.63
2023-04-28T10:38:35.126Z,1.85
2023-04-28T10:41:34.520Z,2.40
2023-04-28T10:44:46.252Z,1.90
2023-04-28T10:47:19.775Z,1.60
2023-04-28T10:50:09.159Z,1.85
2023-04-28T10:52:52.287Z,1.70
2023-04-28T10:55:36.532Z,2.10
2023-04-28T10:58:32.755Z,2.17
2023-04-28T11:01:32.060Z,1.83
2023-04-28T11:04:11.698Z,1.83
2023-04-28T11:06:46.682Z,1.85
2023-04-28T11:09:53.594Z,1.77
2023-04-28T11:12:27.819Z,1.90
2023-04-28T11:15:14.286Z,1.80
2023-04-28T11:17:53.957Z,1.65
2023-04-28T11:20:29.181Z,1.77
2023-04-28T11:23:04.876Z,2.60
2023-04-28T11:25:56.021Z,2.03
2023-04-28T11:28:29.726Z,1.75
2023-04-28T11:31:12.821Z,1.80
2023-04-28T11:33:51.511Z,2.25
2023-04-28T11:36:33.606Z,1.65
2023-04-28T11:39:08.855Z,1.73
2023-04-28T11:41:44.676Z,2.35
2023-04-28T11:44:19.543Z,2.15
2023-04-28T11:46:56.121Z,3.60
2023-04-28T11:49:33.745Z,5.22
2023-04-28T11:52:08.998Z,2.97
2023-04-28T11:54:43.780Z,1.95
2023-04-28T11:57:23.284Z,1.90
2023-04-28T12:00:17.142Z,2.55
2023-04-28T12:02:51.073Z,2.00
2023-04-28T12:05:26.238Z,1.67
2023-04-28T12:08:00.449Z,2.53
2023-04-28T12:10:34.119Z,2.20
2023-04-28T12:13:18.085Z,1.42
2023-04-28T12:15:51.878Z,2.10
2023-04-28T12:18:25.530Z,1.63
2023-04-28T12:21:01.921Z,1.42
2023-04-28T12:23:36.962Z,1.48
2023-04-28T12:26:12.016Z,1.85
2023-04-28T12:28:45.783Z,1.70
2023-04-28T12:31:19.431Z,1.85
2023-04-28T12:33:53.576Z,1.88
2023-04-28T12:36:29.563Z,1.83
2023-04-28T12:39:03.267Z,1.70
2023-04-28T12:41:37.149Z,1.50
2023-04-28T12:44:10.658Z,1.65
2023-04-28T12:46:44.288Z,1.95
2023-04-28T12:49:18.234Z,1.92
2023-04-28T12:51:53.177Z,1.90
2023-04-28T12:54:26.878Z,1.63
2023-04-28T12:57:00.575Z,1.73
2023-04-28T12:59:34.176Z,1.80
2023-04-28T13:02:08.203Z,1.50
2023-04-28T13:04:43.157Z,1.52
2023-04-28T13:07:18.490Z,1.90
2023-04-28T13:09:52.118Z,1.60
2023-04-28T13:12:25.760Z,1.88
2023-04-28T13:15:00.959Z,1.67
2023-04-28T13:17:34.911Z,1.58
2023-04-28T13:20:09.837Z,1.52
2023-04-28T13:22:45.171Z,1.75
2023-04-28T13:25:18.683Z,1.85
2023-04-28T13:27:52.433Z,1.30
2023-04-28T13:30:26.792Z,1.60
2023-04-28T13:33:00.460Z,1.63
2023-04-28T13:35:34.102Z,1.60
2023-04-28T13:38:09.195Z,1.63
2023-04-28T13:40:43.166Z,2.22
2023-04-28T13:43:16.659Z,1.92
2023-04-28T13:45:50.638Z,1.63
2023-04-28T13:48:25.231Z,1.83
2023-04-28T13:50:58.889Z,2.10
2023-04-28T13:53:34.682Z,1.20
2023-04-28T13:56:09.260Z,1.67
2023-04-28T13:58:43.202Z,3.15
2023-04-28T14:01:16.972Z,2.13
2023-04-28T14:03:50.891Z,1.33
2023-04-28T14:06:24.570Z,2.20
2023-04-28T14:09:01.239Z,1.73
2023-04-28T14:11:35.115Z,2.03
2023-04-28T14:14:08.892Z,1.73
2023-04-28T14:16:42.649Z,2.50
2023-04-28T14:19:18.233Z,2.97
2023-04-28T14:21:52.223Z,1.30
2023-04-28T14:24:27.520Z,3.20
2023-04-28T14:27:01.161Z,1.90
2023-04-28T14:29:34.675Z,1.85
2023-04-28T14:32:08.379Z,1.60
2023-04-28T14:34:42.107Z,7.05
2023-04-28T14:37:15.761Z,3.40
2023-04-28T14:39:50.910Z,1.50
2023-04-28T14:42:32.159Z,1.45
2023-04-28T14:45:07.204Z,1.52
2023-04-28T14:47:41.472Z,1.73
2023-04-28T14:50:15.180Z,1.65
2023-04-28T14:52:48.792Z,1.40
2023-04-28T14:55:23.897Z,1.60
2023-04-28T14:57:57.492Z,1.55
2023-04-28T15:00:31.536Z,1.90
2023-04-28T15:03:05.364Z,2.03
2023-04-28T15:05:39.460Z,1.38
2023-04-28T15:08:13.090Z,1.52
2023-04-28T15:10:48.172Z,1.90
2023-04-28T15:13:21.761Z,1.70
2023-04-28T15:15:56.215Z,1.20
2023-04-28T15:18:29.961Z,1.38
2023-04-28T15:21:03.602Z,1.58
2023-04-28T15:23:37.187Z,1.55
2023-04-28T15:26:12.431Z,1.92
2023-04-28T15:28:46.085Z,1.33
2023-04-28T15:31:19.898Z,2.20
2023-04-28T15:33:53.625Z,1.58
2023-04-28T15:36:27.233Z,6.97
2023-04-28T15:39:00.928Z,1.40
2023-04-28T15:41:36.323Z,6.20
2023-04-28T15:44:10.755Z,1.85
2023-04-28T15:46:45.076Z,2.47
2023-04-28T15:49:18.629Z,1.42
2023-04-28T15:52:10.655Z,5.22
2023-04-28T15:54:46.543Z,1.95
2023-04-28T15:57:22.031Z,3.13
2023-04-28T15:59:55.596Z,2.25
2023-04-28T16:02:29.271Z,1.70
2023-04-28T16:05:04.336Z,2.13
2023-04-28T16:07:41.024Z,1.25
2023-04-28T16:10:16.504Z,2.72
2023-04-28T16:12:51.704Z,1.15
2023-04-28T16:15:25.413Z,1.40
2023-04-28T16:17:58.886Z,2.03
2023-04-28T16:20:33.694Z,1.40
2023-04-28T16:23:07.717Z,1.52
2023-04-28T16:25:41.348Z,1.98
2023-04-28T16:28:16.617Z,1.80
2023-04-28T16:30:50.206Z,1.52
2023-04-28T16:33:24.060Z,1.00
2023-04-28T16:35:59.738Z,1.40
2023-04-28T16:38:33.423Z,1.85
2023-04-28T16:41:07.168Z,1.77
2023-04-28T16:43:42.185Z,1.40
2023-04-28T16:46:15.921Z,1.77
2023-04-28T16:48:49.537Z,2.05
2023-04-28T16:51:24.415Z,1.52
2023-04-28T16:53:57.944Z,1.58
2023-04-28T16:56:32.526Z,1.70
2023-04-28T16:59:07.489Z,1.90
2023-04-28T17:01:41.250Z,2.10
2023-04-28T17:04:15.158Z,2.58
2023-04-28T17:06:48.958Z,3.30
2023-04-28T17:09:23.301Z,3.22
2023-04-28T17:11:56.980Z,4.25
2023-04-28T17:14:32.045Z,2.65
2023-04-28T17:17:05.973Z,4.45
2023-04-28T17:19:41.699Z,4.35
2023-04-28T17:22:15.316Z,2.50
2023-04-28T17:24:48.893Z,3.20
2023-04-28T17:27:22.523Z,3.00
2023-04-28T17:29:57.552Z,3.25
2023-04-28T17:32:33.355Z,2.58
2023-04-28T17:35:07.946Z,2.38
2023-04-28T17:37:42.085Z,2.70
2023-04-28T17:40:16.055Z,3.10
2023-04-28T17:42:49.875Z,2.38
2023-04-28T17:45:25.579Z,1.95
2023-04-28T17:48:00.727Z,2.60
2023-04-28T17:50:35.533Z,2.55
2023-04-28T17:53:09.229Z,5.15
2023-04-28T17:55:43.272Z,2.60
2023-04-28T17:58:17.597Z,2.08
2023-04-28T18:01:01.128Z,5.15
2023-04-28T18:03:36.402Z,5.00
2023-04-28T18:06:10.305Z,7.70
2023-04-28T18:08:44.112Z,5.75
2023-04-28T18:11:18.099Z,4.47
2023-04-28T18:13:51.812Z,3.40
2023-04-28T18:16:27.231Z,3.08
2023-04-28T18:19:01.241Z,3.30
2023-04-28T18:21:35.296Z,2.53
2023-04-28T18:24:09.046Z,3.25
2023-04-28T18:26:42.854Z,5.47
2023-04-28T18:29:17.875Z,3.58
2023-04-28T18:31:53.069Z,5.32
2023-04-28T18:34:27.386Z,3.25
2023-04-28T18:37:01.158Z,3.40
2023-04-28T18:39:35.501Z,4.00
2023-04-28T18:42:09.259Z,3.22
2023-04-28T18:44:43.112Z,8.35
2023-04-28T18:47:18.927Z,7.22
2023-04-28T18:49:52.845Z,5.50
2023-04-28T18:52:26.782Z,3.05
2023-04-28T18:55:00.643Z,4.60
2023-04-28T18:57:34.807Z,3.22
2023-04-28T19:00:10.092Z,3.53
2023-04-28T19:02:47.424Z,3.63
2023-04-28T19:05:22.816Z,6.43
2023-04-28T19:07:56.682Z,3.92
2023-04-28T19:10:30.849Z,4.63
2023-04-28T19:13:04.831Z,3.80
2023-04-28T19:15:38.745Z,2.50
2023-04-28T19:18:16.577Z,3.40
2023-04-28T19:20:52.234Z,3.53
2023-04-28T19:23:30.414Z,3.60
2023-04-28T19:26:04.465Z,2.55
2023-04-28T19:28:38.642Z,2.65
2023-04-28T19:31:12.416Z,3.78
2023-04-28T19:33:47.933Z,3.17
2023-04-28T19:36:21.836Z,4.93
2023-04-28T19:38:55.709Z,3.92
2023-04-28T19:41:31.689Z,2.90
2023-04-28T19:44:05.850Z,2.78
2023-04-28T19:46:43.316Z,4.13
2023-04-28T19:49:20.100Z,6.22
2023-04-28T19:51:54.590Z,7.85
2023-04-28T19:54:28.439Z,10.45
2023-04-28T19:57:03.954Z,9.43
2023-04-28T19:59:38.576Z,8.50
2023-04-28T20:02:14.186Z,10.27
2023-04-28T20:04:50.363Z,9.18
2023-04-28T20:07:24.654Z,9.57
2023-04-28T20:10:00.024Z,9.35
2023-04-28T20:12:34.099Z,20.95
2023-04-28T20:15:09.657Z,11.68
2023-04-28T20:17:43.953Z,8.68
2023-04-28T20:20:21.046Z,9.05
2023-04-28T20:22:55.848Z,9.90
2023-04-28T20:25:29.617Z,7.47
2023-04-28T20:28:03.540Z,7.43
2023-04-28T20:30:38.118Z,7.32
2023-04-28T20:33:13.411Z,5.90
2023-04-28T20:35:48.575Z,6.95
2023-04-28T20:38:22.539Z,5.82
2023-04-28T20:40:57.867Z,6.45
2023-04-28T20:43:33.599Z,7.50
2023-04-28T20:46:11.216Z,6.82
2023-04-28T20:48:45.577Z,7.95
2023-04-28T20:51:21.954Z,6.65
2023-04-28T20:53:56.436Z,8.27
2023-04-28T20:56:30.165Z,7.60
2023-04-28T20:59:04.057Z,7.00
2023-04-28T21:01:38.081Z,9.63
2023-04-28T21:04:12.148Z,6.25
2023-04-28T21:06:50.848Z,7.25
2023-04-28T21:09:25.696Z,10.15
2023-04-28T21:11:59.372Z,6.20
2023-04-28T21:14:35.816Z,7.97
2023-04-28T21:17:09.811Z,7.70
2023-04-28T21:19:43.889Z,8.07
2023-04-28T21:22:18.965Z,10.57
2023-04-28T21:24:54.544Z,13.00
2023-04-28T21:27:28.227Z,9.15
2023-04-28T21:30:02.031Z,12.52
2023-04-28T21:32:35.732Z,12.50
2023-04-28T21:35:10.952Z,13.20
2023-04-28T21:37:46.368Z,11.70
2023-04-28T21:40:19.974Z,12.93
2023-04-28T21:42:53.524Z,10.18
2023-04-28T21:45:27.114Z,11.75
2023-04-28T21:48:01.167Z,10.68
2023-04-28T21:50:36.200Z,12.05
2023-04-28T21:53:11.150Z,13.13
2023-04-28T21:55:45.392Z,13.85
2023-04-28T21:58:18.872Z,15.15
2023-04-28T22:00:52.656Z,12.65
2023-04-28T22:03:27.231Z,8.13
2023-04-28T22:06:01.801Z,9.52
2023-04-28T22:08:36.746Z,12.23
2023-04-28T22:11:10.229Z,12.30
2023-04-28T22:13:43.683Z,10.50
2023-04-28T22:16:17.535Z,8.98
2023-04-28T22:18:51.055Z,9.77
2023-04-28T22:21:24.853Z,8.80
2023-04-28T22:23:59.774Z,8.98
2023-04-28T22:26:36.904Z,11.02
2023-04-28T22:29:12.373Z,11.23
2023-04-28T22:31:47.239Z,10.32
2023-04-28T22:34:21.459Z,10.85
2023-04-28T22:36:55.062Z,8.32
2023-04-28T22:39:30.126Z,9.15
2023-04-28T22:42:04.423Z,8.27
2023-04-28T22:44:38.428Z,9.10
2023-04-28T22:47:11.918Z,7.40
2023-04-28T22:49:45.377Z,8.07
2023-04-28T22:52:20.535Z,8.15
2023-04-28T22:54:55.350Z,8.63
2023-04-28T22:57:29.017Z,8.52
2023-04-28T23:00:02.536Z,7.65
2023-04-28T23:02:36.268Z,7.75
2023-04-28T23:05:10.312Z,8.68
2023-04-28T23:07:43.800Z,6.93
2023-04-28T23:10:19.052Z,6.78
2023-04-28T23:12:52.648Z,6.43
2023-04-28T23:15:26.145Z,6.53
2023-04-28T23:17:59.657Z,6.88
2023-04-28T23:20:34.965Z,6.70
2023-04-28T23:23:08.492Z,6.45
2023-04-28T23:25:43.940Z,7.55
2023-04-28T23:28:17.401Z,8.65
2023-04-28T23:30:50.864Z,10.68
2023-04-28T23:33:24.403Z,6.80
2023-04-28T23:35:57.863Z,9.40
2023-04-28T23:38:31.377Z,6.88
2023-04-28T23:41:06.860Z,12.10
2023-04-28T23:43:40.346Z,8.45
2023-04-28T23:46:14.407Z,7.55
2023-04-28T23:48:48.106Z,7.50
2023-04-28T23:51:21.604Z,8.43
2023-04-28T23:53:55.081Z,7.70
2023-04-28T23:56:29.931Z,6.07
2023-04-28T23:59:03.384Z,7.97
